Time;durP1;ratioP1;P1;durP2;ratioP2;P2;SDS_P1;SDS_P2;PMS_P1;PMS_P2;Temp;Humidity;BMP_temperature;BMP_pressure;BME280_temperature;BME280_humidity;BME280_pressure;Samples;Min_cycle;Max_cycle;Signal;HPM_P1;HPM_P2
2023/09/28 00:08:21;;;;;;;13.33;12.63;;;;;;;;;;2615881;46;20411;-79
2023/09/28 00:13:50;;;;;;;12.70;12.07;;;;;;;;;;2615700;54;20503;-80
2023/09/28 00:19:20;;;;;;;13.57;12.67;;;;;;;;;;2613326;54;20378;-79
2023/09/28 00:24:50;;;;;;;13.77;12.97;;;;;;;;;;2615165;54;20394;-79
2023/09/28 00:30:22;;;;;;;13.57;12.40;;;;;;;;;;2615344;54;20399;-80
2023/09/28 00:35:51;;;;;;;12.70;11.90;;;;;;;;;;2615580;31;20922;-79
2023/09/28 00:41:21;;;;;;;12.50;11.90;;;;;;;;;;2611965;54;20410;-79
2023/09/28 00:46:51;;;;;;;12.60;11.90;;;;;;;;;;2612379;54;20431;-79
2023/09/28 00:52:20;;;;;;;12.10;11.50;;;;;;;;;;2612244;54;20893;-80
2023/09/28 00:57:50;;;;;;;13.40;12.70;;;;;;;;;;2613376;39;21061;-81
2023/09/28 01:03:20;;;;;;;12.50;11.87;;;;;;;;;;2613177;54;20417;-81
2023/09/28 01:08:50;;;;;;;13.50;12.80;;;;;;;;;;2610495;54;20382;-80
2023/09/28 01:14:21;;;;;;;13.87;12.90;;;;;;;;;;2611925;39;20768;-78
2023/09/28 01:19:53;;;;;;;13.13;12.03;;;;;;;;;;2612052;54;20491;-80
2023/09/28 01:25:22;;;;;;;13.23;12.53;;;;;;;;;;2613243;31;20840;-80
2023/09/28 01:30:52;;;;;;;12.77;12.07;;;;;;;;;;2611227;54;20410;-79
2023/09/28 01:36:22;;;;;;;13.43;12.73;;;;;;;;;;2612226;54;20390;-80
2023/09/28 01:41:51;;;;;;;13.17;12.37;;;;;;;;;;2613408;54;20379;-79
2023/09/28 01:47:21;;;;;;;13.30;12.40;;;;;;;;;;2614509;54;20399;-79
2023/09/28 01:52:51;;;;;;;13.33;12.40;;;;;;;;;;2614847;54;20426;-78
2023/09/28 01:58:21;;;;;;;12.60;12.00;;;;;;;;;;2613887;54;20462;-81
2023/09/28 02:03:51;;;;;;;12.90;12.20;;;;;;;;;;2612342;54;20414;-80
2023/09/28 02:09:21;;;;;;;13.60;12.80;;;;;;;;;;2613370;39;20750;-80
2023/09/28 02:14:51;;;;;;;13.47;12.67;;;;;;;;;;2613006;54;20976;-80
2023/09/28 02:20:22;;;;;;;12.90;12.10;;;;;;;;;;2615822;54;20386;-79
2023/09/28 02:25:52;;;;;;;13.87;13.07;;;;;;;;;;2615320;54;20383;-79
2023/09/28 02:31:22;;;;;;;14.27;13.40;;;;;;;;;;2615453;54;20394;-79
2023/09/28 02:36:54;;;;;;;13.40;12.70;;;;;;;;;;2612931;46;20410;-79
2023/09/28 02:42:23;;;;;;;12.93;12.20;;;;;;;;;;2613624;54;21016;-78
2023/09/28 02:47:54;;;;;;;12.93;12.23;;;;;;;;;;2613322;54;20382;-78
2023/09/28 02:53:23;;;;;;;12.83;11.80;;;;;;;;;;2613765;39;20865;-79
2023/09/28 02:58:53;;;;;;;12.20;11.53;;;;;;;;;;2614734;39;20783;-79
2023/09/28 03:10:31;;;;;;;12.43;11.70;;;;;;;;;;2614772;54;20386;-80
2023/09/28 03:16:01;;;;;;;11.47;10.87;;;;;;;;;;2612734;54;21154;-80
2023/09/28 03:21:31;;;;;;;12.40;11.70;;;;;;;;;;2612981;54;20413;-81
2023/09/28 03:27:00;;;;;;;13.10;12.30;;;;;;;;;;2613310;54;20507;-79
2023/09/28 03:32:30;;;;;;;13.57;12.67;;;;;;;;;;2613042;54;20556;-80
2023/09/28 03:38:00;;;;;;;12.57;11.87;;;;;;;;;;2612614;54;20418;-79
2023/09/28 03:43:30;;;;;;;11.93;11.20;;;;;;;;;;2614033;39;20758;-79
2023/09/28 03:49:00;;;;;;;13.43;12.50;;;;;;;;;;2613307;54;21014;-79
2023/09/28 03:54:30;;;;;;;11.97;11.13;;;;;;;;;;2611698;39;20739;-79
2023/09/28 03:59:59;;;;;;;12.33;11.63;;;;;;;;;;2613062;54;20383;-79
2023/09/28 04:09:11;;;;;;;11.53;10.83;;;;;;;;;;2613318;39;20868;-79
2023/09/28 04:14:40;;;;;;;12.27;11.27;;;;;;;;;;2612688;54;20949;-79
2023/09/28 04:20:10;;;;;;;11.70;11.00;;;;;;;;;;2614516;54;20431;-79
2023/09/28 04:25:40;;;;;;;11.90;11.10;;;;;;;;;;2614340;54;20391;-79
2023/09/28 04:31:10;;;;;;;11.17;10.50;;;;;;;;;;2614636;54;20965;-80
2023/09/28 04:36:40;;;;;;;11.90;11.10;;;;;;;;;;2612944;54;20426;-80
2023/09/28 04:42:09;;;;;;;11.30;10.70;;;;;;;;;;2613025;39;20806;-80
2023/09/28 04:47:39;;;;;;;11.87;11.07;;;;;;;;;;2612820;54;20391;-80
2023/09/28 04:53:09;;;;;;;11.70;11.00;;;;;;;;;;2611344;54;20386;-80
2023/09/28 04:58:39;;;;;;;11.53;10.53;;;;;;;;;;2613684;31;21013;-79
2023/09/28 05:04:11;;;;;;;11.70;10.90;;;;;;;;;;2612496;54;20443;-80
2023/09/28 05:09:42;;;;;;;10.10;9.50;;;;;;;;;;2613205;54;20410;-80
2023/09/28 05:15:13;;;;;;;11.50;10.60;;;;;;;;;;2611698;54;20414;-79
2023/09/28 05:20:43;;;;;;;11.30;10.30;;;;;;;;;;2612054;54;20394;-79
2023/09/28 05:26:12;;;;;;;11.60;10.63;;;;;;;;;;2612928;54;20415;-76
2023/09/28 05:31:42;;;;;;;11.93;11.13;;;;;;;;;;2613092;54;20378;-80
2023/09/28 05:37:12;;;;;;;11.53;10.80;;;;;;;;;;2613057;54;20395;-79
2023/09/28 05:42:42;;;;;;;11.93;11.03;;;;;;;;;;2611499;54;20382;-79
2023/09/28 05:48:11;;;;;;;10.33;9.63;;;;;;;;;;2611727;39;25948;-77
2023/09/28 05:53:41;;;;;;;12.20;11.27;;;;;;;;;;2613359;54;20419;-78
2023/09/28 05:59:11;;;;;;;12.20;11.20;;;;;;;;;;2614668;39;20789;-77
2023/09/28 06:04:41;;;;;;;11.73;10.73;;;;;;;;;;2615019;54;20382;-78
2023/09/28 06:10:11;;;;;;;10.90;10.00;;;;;;;;;;2614286;54;20518;-78
2023/09/28 06:15:41;;;;;;;11.10;10.30;;;;;;;;;;2615576;54;20494;-78
2023/09/28 06:21:10;;;;;;;10.77;10.07;;;;;;;;;;2615581;54;20399;-78
2023/09/28 06:26:40;;;;;;;11.17;10.47;;;;;;;;;;2614381;54;20390;-77
2023/09/28 06:32:10;;;;;;;11.77;10.77;;;;;;;;;;2614337;39;20706;-77
2023/09/28 06:37:39;;;;;;;11.10;10.23;;;;;;;;;;2614599;54;20418;-77
2023/09/28 06:43:09;;;;;;;10.73;10.03;;;;;;;;;;2614991;54;20491;-77
2023/09/28 06:48:39;;;;;;;12.30;11.50;;;;;;;;;;2614772;54;20415;-77
2023/09/28 06:54:09;;;;;;;11.90;11.20;;;;;;;;;;2614920;39;20491;-77
2023/09/28 06:59:39;;;;;;;12.10;11.27;;;;;;;;;;2612693;54;20494;-77
2023/09/28 07:11:16;;;;;;;12.33;11.13;;;;;;;;;;2612507;54;20395;-77
2023/09/28 07:16:46;;;;;;;13.77;12.67;;;;;;;;;;2614644;54;21028;-78
2023/09/28 07:22:16;;;;;;;13.83;12.73;;;;;;;;;;2612942;54;20383;-78
2023/09/28 07:27:50;;;;;;;13.87;12.90;;;;;;;;;;2614906;54;20391;-78
2023/09/28 07:30:35;;;;;;;14.53;13.57;;;;;;;;;;2613647;54;20443;-77
2023/09/28 07:33:01;;;;;;;14.60;13.30;;;;;;;;;;2614619;54;20442;-77
2023/09/28 07:38:32;;;;;;;14.27;13.27;;;;;;;;;;2614710;54;20415;-77
2023/09/28 07:44:01;;;;;;;14.60;13.40;;;;;;;;;;2614896;54;20398;-77
2023/09/28 07:49:31;;;;;;;14.93;13.40;;;;;;;;;;2614289;54;20395;-77
2023/09/28 07:55:01;;;;;;;13.87;12.87;;;;;;;;;;2614540;54;21091;-76
2023/09/28 08:00:32;;;;;;;13.03;12.03;;;;;;;;;;2614353;54;20394;-77
2023/09/28 08:09:42;;;;;;;13.67;12.33;;;;;;;;;;2615020;54;20398;-78
2023/09/28 08:15:12;;;;;;;12.13;11.07;;;;;;;;;;2614811;54;20399;-77
2023/09/28 08:20:43;;;;;;;12.17;11.27;;;;;;;;;;2614927;54;20415;-77
2023/09/28 08:26:13;;;;;;;12.83;11.67;;;;;;;;;;2615925;54;20399;-77
2023/09/28 08:31:43;;;;;;;11.63;10.73;;;;;;;;;;2614750;54;20401;-77
2023/09/28 08:37:13;;;;;;;11.30;10.27;;;;;;;;;;2615734;54;20415;-77
2023/09/28 08:42:43;;;;;;;13.43;11.03;;;;;;;;;;2613203;54;20985;-79
2023/09/28 08:48:17;;;;;;;14.97;11.87;;;;;;;;;;2614442;54;20383;-77
2023/09/28 08:53:48;;;;;;;11.73;10.73;;;;;;;;;;2614562;54;20419;-78
2023/09/28 08:59:20;;;;;;;12.83;11.53;;;;;;;;;;2614554;54;20386;-78
2023/09/28 09:04:49;;;;;;;13.10;11.90;;;;;;;;;;2612184;54;20382;-78
2023/09/28 09:10:20;;;;;;;13.10;11.90;;;;;;;;;;2610766;54;20459;-79
2023/09/28 09:15:50;;;;;;;13.73;12.53;;;;;;;;;;2612193;54;20414;-80
2023/09/28 09:21:19;;;;;;;14.20;11.70;;;;;;;;;;2612196;54;20414;-77
2023/09/28 09:26:52;;;;;;;13.20;11.90;;;;;;;;;;2611226;54;20513;-77
2023/09/28 09:29:37;;;;;;;12.33;11.33;;;;;;;;;;2613320;54;20407;-78
2023/09/28 09:32:03;;;;;;;13.00;11.67;;;;;;;;;;2612178;54;20411;-78
2023/09/28 09:37:32;;;;;;;12.93;11.63;;;;;;;;;;2611705;54;20394;-77
2023/09/28 09:43:07;;;;;;;12.70;11.70;;;;;;;;;;2611855;54;20419;-78
2023/09/28 09:48:41;;;;;;;13.60;11.30;;;;;;;;;;2613067;54;20391;-78
2023/09/28 09:54:11;;;;;;;16.77;12.10;;;;;;;;;;2612638;39;20477;-77
2023/09/28 09:59:46;;;;;;;18.23;11.70;;;;;;;;;;2612157;54;20961;-77
2023/09/28 10:05:18;;;;;;;11.60;10.50;;;;;;;;;;2611331;54;20414;-76
2023/09/28 10:10:48;;;;;;;13.57;12.40;;;;;;;;;;2615168;54;20451;-78
2023/09/28 10:16:19;;;;;;;12.20;11.13;;;;;;;;;;2614013;54;20362;-78
2023/09/28 10:21:51;;;;;;;13.67;12.60;;;;;;;;;;2615394;54;21054;-79
2023/09/28 10:27:21;;;;;;;14.80;12.50;;;;;;;;;;2614033;54;20383;-79
2023/09/28 10:32:57;;;;;;;14.13;13.03;;;;;;;;;;2615739;39;20815;-79
2023/09/28 10:38:28;;;;;;;14.07;12.90;;;;;;;;;;2615331;54;20542;-79
2023/09/28 10:43:57;;;;;;;12.97;12.17;;;;;;;;;;2615095;54;20375;-79
2023/09/28 10:49:28;;;;;;;14.20;13.10;;;;;;;;;;2614853;54;20403;-79
2023/09/28 10:54:58;;;;;;;12.70;12.00;;;;;;;;;;2614696;54;20408;-79
2023/09/28 11:00:30;;;;;;;13.23;12.20;;;;;;;;;;2614171;54;20387;-78
2023/09/28 11:09:41;;;;;;;13.07;12.10;;;;;;;;;;2613198;54;20949;-79
2023/09/28 11:15:14;;;;;;;13.60;12.40;;;;;;;;;;2609662;54;20475;-79
2023/09/28 11:20:44;;;;;;;13.30;12.20;;;;;;;;;;2611811;54;20985;-77
2023/09/28 11:26:14;;;;;;;13.47;12.30;;;;;;;;;;2613217;54;20383;-77
2023/09/28 11:31:52;;;;;;;14.60;13.30;;;;;;;;;;2612515;39;20859;-77
2023/09/28 11:37:23;;;;;;;12.70;11.90;;;;;;;;;;2612050;54;20379;-77
2023/09/28 11:42:53;;;;;;;12.10;10.93;;;;;;;;;;2611012;54;20408;-78
2023/09/28 11:48:23;;;;;;;13.03;12.13;;;;;;;;;;2611045;54;20398;-77
2023/09/28 11:53:53;;;;;;;13.50;12.33;;;;;;;;;;2610524;54;20379;-77
2023/09/28 11:59:22;;;;;;;12.90;12.00;;;;;;;;;;2611373;54;20956;-78
2023/09/28 12:04:52;;;;;;;13.30;11.90;;;;;;;;;;2611297;54;20933;-78
2023/09/28 12:10:23;;;;;;;13.40;11.50;;;;;;;;;;2611556;54;20433;-78
2023/09/28 12:15:54;;;;;;;16.83;12.27;;;;;;;;;;2611367;39;20897;-77
2023/09/28 12:21:24;;;;;;;13.03;12.13;;;;;;;;;;2611181;54;20371;-78
2023/09/28 12:26:54;;;;;;;12.10;11.03;;;;;;;;;;2610438;54;20416;-77
2023/09/28 12:32:24;;;;;;;13.23;11.90;;;;;;;;;;2611811;54;20419;-78
2023/09/28 12:37:54;;;;;;;13.70;12.30;;;;;;;;;;2611767;39;20930;-77
2023/09/28 12:43:25;;;;;;;12.00;10.90;;;;;;;;;;2612257;54;20432;-78
2023/09/28 12:48:57;;;;;;;11.90;11.10;;;;;;;;;;2614261;54;20418;-78
2023/09/28 12:54:27;;;;;;;12.90;11.90;;;;;;;;;;2613909;54;20423;-78
2023/09/28 12:59:56;;;;;;;13.90;12.80;;;;;;;;;;2615344;39;20778;-78
2023/09/28 13:11:34;;;;;;;12.83;11.90;;;;;;;;;;2614826;54;20406;-79
2023/09/28 13:17:04;;;;;;;12.33;11.63;;;;;;;;;;2614706;54;20370;-78
2023/09/28 13:22:33;;;;;;;13.43;12.10;;;;;;;;;;2616191;54;20507;-78
2023/09/28 13:28:07;;;;;;;13.37;12.10;;;;;;;;;;2615889;54;20410;-79
2023/09/28 13:30:53;;;;;;;12.60;11.60;;;;;;;;;;2615267;46;20921;-79
2023/09/28 13:33:19;;;;;;;12.70;11.70;;;;;;;;;;2615695;54;20412;-79
2023/09/28 13:38:49;;;;;;;11.93;11.03;;;;;;;;;;2615306;54;20379;-79
2023/09/28 13:44:20;;;;;;;12.47;11.47;;;;;;;;;;2615464;54;20965;-77
2023/09/28 13:49:49;;;;;;;12.60;11.53;;;;;;;;;;2615390;54;20390;-78
2023/09/28 13:55:20;;;;;;;12.50;11.30;;;;;;;;;;2615390;54;20378;-77
2023/09/28 14:00:53;;;;;;;11.80;10.90;;;;;;;;;;2614991;54;20434;-78
2023/09/28 14:10:01;;;;;;;12.53;11.70;;;;;;;;;;2615750;39;20796;-77
2023/09/28 14:15:31;;;;;;;12.00;11.20;;;;;;;;;;2615776;54;20386;-77
2023/09/28 14:21:01;;;;;;;12.93;11.77;;;;;;;;;;2614962;54;20391;-77
2023/09/28 14:26:31;;;;;;;14.20;12.83;;;;;;;;;;2616018;54;20406;-77
2023/09/28 14:32:01;;;;;;;13.27;12.03;;;;;;;;;;2615297;54;20426;-77
2023/09/28 14:37:32;;;;;;;12.97;11.83;;;;;;;;;;2615655;39;20794;-78
2023/09/28 14:43:03;;;;;;;11.47;10.77;;;;;;;;;;2614833;54;20513;-77
2023/09/28 14:48:34;;;;;;;13.60;12.60;;;;;;;;;;2615051;54;20428;-77
2023/09/28 14:54:04;;;;;;;14.37;13.23;;;;;;;;;;2614845;54;20938;-77
2023/09/28 14:59:33;;;;;;;12.40;11.57;;;;;;;;;;2615399;54;20376;-76
2023/09/28 15:05:03;;;;;;;13.33;12.23;;;;;;;;;;2614661;54;20415;-76
2023/09/28 15:10:33;;;;;;;13.10;11.97;;;;;;;;;;2615453;54;20387;-77
2023/09/28 15:16:03;;;;;;;13.43;12.50;;;;;;;;;;2614256;54;20371;-77
2023/09/28 15:21:32;;;;;;;13.00;11.63;;;;;;;;;;2611283;54;20411;-77
2023/09/28 15:27:03;;;;;;;12.90;11.70;;;;;;;;;;2612590;54;20444;-77
2023/09/28 15:32:33;;;;;;;11.67;10.87;;;;;;;;;;2611830;54;20374;-77
2023/09/28 15:38:03;;;;;;;12.97;11.43;;;;;;;;;;2611465;54;20825;-77
2023/09/28 15:43:34;;;;;;;13.10;12.10;;;;;;;;;;2612465;54;20395;-77
2023/09/28 15:49:04;;;;;;;11.73;10.77;;;;;;;;;;2612497;54;20395;-76
2023/09/28 15:54:34;;;;;;;11.90;10.80;;;;;;;;;;2613147;46;20411;-77
2023/09/28 16:00:07;;;;;;;12.40;11.00;;;;;;;;;;2612317;54;20841;-77
2023/09/28 16:05:37;;;;;;;11.03;10.03;;;;;;;;;;2614597;54;20426;-78
2023/09/28 16:11:06;;;;;;;11.10;10.30;;;;;;;;;;2614406;54;20379;-78
2023/09/28 16:16:36;;;;;;;11.60;10.60;;;;;;;;;;2615601;54;20387;-78
2023/09/28 16:22:07;;;;;;;11.40;10.40;;;;;;;;;;2615170;54;20491;-78
2023/09/28 16:27:36;;;;;;;11.67;10.97;;;;;;;;;;2615792;54;20428;-78
2023/09/28 16:33:06;;;;;;;12.67;11.53;;;;;;;;;;2615220;54;20383;-78
2023/09/28 16:38:36;;;;;;;11.10;10.20;;;;;;;;;;2614720;54;20407;-84
2023/09/28 16:44:05;;;;;;;10.70;9.70;;;;;;;;;;2614689;54;20386;-79
2023/09/28 16:49:35;;;;;;;12.90;11.57;;;;;;;;;;2615532;54;20387;-79
2023/09/28 16:55:06;;;;;;;11.10;10.17;;;;;;;;;;2615835;54;20398;-79
2023/09/28 17:00:36;;;;;;;10.77;9.77;;;;;;;;;;2615265;39;20746;-78
2023/09/28 17:12:13;;;;;;;12.13;10.97;;;;;;;;;;2615218;54;20407;-78
2023/09/28 17:17:42;;;;;;;11.90;10.80;;;;;;;;;;2614656;54;20390;-78
2023/09/28 17:23:13;;;;;;;11.20;10.40;;;;;;;;;;2612713;54;20426;-78
2023/09/28 17:28:43;;;;;;;12.33;11.13;;;;;;;;;;2614723;54;20418;-78
2023/09/28 17:34:13;;;;;;;14.47;11.73;;;;;;;;;;2615413;54;20405;-78
2023/09/28 17:39:42;;;;;;;12.13;10.80;;;;;;;;;;2613249;54;20391;-78
2023/09/28 17:45:12;;;;;;;12.53;11.30;;;;;;;;;;2614384;54;20431;-80
2023/09/28 17:50:42;;;;;;;11.70;10.63;;;;;;;;;;2613877;54;20400;-79
2023/09/28 17:56:11;;;;;;;14.57;13.27;;;;;;;;;;2615464;54;20476;-79
2023/09/28 18:01:41;;;;;;;14.70;13.20;;;;;;;;;;2613665;54;20950;-78
2023/09/28 18:10:48;;;;;;;13.27;11.97;;;;;;;;;;2615780;54;20415;-78
2023/09/28 18:16:18;;;;;;;14.03;12.60;;;;;;;;;;2614776;39;20968;-77
2023/09/28 18:21:47;;;;;;;14.33;12.53;;;;;;;;;;2615590;39;20890;-80
2023/09/28 18:27:17;;;;;;;11.73;10.73;;;;;;;;;;2615933;31;20995;-77
2023/09/28 18:32:47;;;;;;;19.20;13.53;;;;;;;;;;2616932;31;20820;-78
2023/09/28 18:38:17;;;;;;;13.80;10.90;;;;;;;;;;2615727;31;20877;-80
2023/09/28 18:43:47;;;;;;;16.20;11.33;;;;;;;;;;2616052;54;20375;-80
2023/09/28 18:49:17;;;;;;;14.77;11.70;;;;;;;;;;2615827;54;20494;-80
2023/09/28 18:54:47;;;;;;;12.60;11.30;;;;;;;;;;2615326;54;20379;-79
2023/09/28 19:00:16;;;;;;;16.80;13.10;;;;;;;;;;2614740;54;20382;-79
2023/09/28 19:03:02;;;;;;;13.57;12.27;;;;;;;;;;2615480;54;20428;-79
2023/09/28 19:05:28;;;;;;;16.63;11.03;;;;;;;;;;2614633;39;20995;-79
2023/09/28 19:14:37;;;;;;;14.70;12.40;;;;;;;;;;2615555;54;20543;-79
2023/09/28 19:20:06;;;;;;;14.63;11.00;;;;;;;;;;2615452;54;20383;-79
2023/09/28 19:25:40;;;;;;;12.13;11.03;;;;;;;;;;2615255;54;20407;-80
2023/09/28 19:31:13;;;;;;;12.10;11.00;;;;;;;;;;2613958;54;21854;-79
2023/09/28 19:36:42;;;;;;;12.83;10.50;;;;;;;;;;2614057;54;20870;-80
2023/09/28 19:42:12;;;;;;;13.90;12.20;;;;;;;;;;2612023;54;20403;-79
2023/09/28 19:47:42;;;;;;;12.37;11.03;;;;;;;;;;2611432;54;20394;-79
2023/09/28 19:53:11;;;;;;;20.60;12.70;;;;;;;;;;2610803;54;20399;-80
2023/09/28 19:58:41;;;;;;;13.27;11.97;;;;;;;;;;2610734;54;20379;-78
2023/09/28 20:04:11;;;;;;;23.03;12.20;;;;;;;;;;2611403;54;20383;-79
2023/09/28 20:09:41;;;;;;;17.83;12.00;;;;;;;;;;2610601;54;20419;-78
2023/09/28 20:15:11;;;;;;;14.17;12.50;;;;;;;;;;2613957;54;20469;-79
2023/09/28 20:20:41;;;;;;;19.13;12.87;;;;;;;;;;2613735;54;20418;-80
2023/09/28 20:26:10;;;;;;;14.43;12.90;;;;;;;;;;2614310;54;20499;-79
2023/09/28 20:31:40;;;;;;;14.23;12.80;;;;;;;;;;2614656;54;20925;-79
2023/09/28 20:37:10;;;;;;;15.47;14.07;;;;;;;;;;2614702;54;20411;-79
2023/09/28 20:42:39;;;;;;;15.13;12.53;;;;;;;;;;2612574;54;20523;-79
2023/09/28 20:48:11;;;;;;;15.20;12.63;;;;;;;;;;2613127;54;20431;-79
2023/09/28 20:53:41;;;;;;;14.80;13.13;;;;;;;;;;2614390;54;20431;-80
2023/09/28 20:59:11;;;;;;;20.97;14.47;;;;;;;;;;2614095;54;20383;-79
2023/09/28 21:04:41;;;;;;;15.40;13.40;;;;;;;;;;2614720;54;20382;-79
2023/09/28 21:10:10;;;;;;;14.50;12.27;;;;;;;;;;2613808;54;20408;-79
2023/09/28 21:19:15;;;;;;;16.43;13.60;;;;;;;;;;2613824;54;20390;-79
2023/09/28 21:24:45;;;;;;;20.30;14.90;;;;;;;;;;2614442;54;20419;-79
2023/09/28 21:30:14;;;;;;;15.17;13.63;;;;;;;;;;2613940;54;20958;-80
2023/09/28 21:35:44;;;;;;;17.27;13.40;;;;;;;;;;2613779;54;20391;-80
2023/09/28 21:41:15;;;;;;;16.93;13.60;;;;;;;;;;2614698;54;20486;-80
2023/09/28 21:46:45;;;;;;;14.77;13.47;;;;;;;;;;2614511;54;20371;-79
2023/09/28 21:52:15;;;;;;;17.00;15.20;;;;;;;;;;2614658;54;20375;-80
2023/09/28 21:57:44;;;;;;;16.87;15.07;;;;;;;;;;2614923;46;20422;-79
2023/09/28 22:03:14;;;;;;;17.33;14.97;;;;;;;;;;2613740;54;20391;-79
2023/09/28 22:08:44;;;;;;;22.83;13.77;;;;;;;;;;2615140;31;20849;-79
2023/09/28 22:14:13;;;;;;;16.53;13.20;;;;;;;;;;2614779;39;20458;-80
2023/09/28 22:19:43;;;;;;;16.13;14.10;;;;;;;;;;2614873;54;20406;-79
2023/09/28 22:25:13;;;;;;;16.67;14.60;;;;;;;;;;2615421;54;20394;-79
2023/09/28 22:30:43;;;;;;;15.23;12.80;;;;;;;;;;2614673;54;20403;-79
2023/09/28 22:36:13;;;;;;;17.67;13.77;;;;;;;;;;2614677;54;20399;-78
2023/09/28 22:41:43;;;;;;;15.23;13.63;;;;;;;;;;2615059;54;20403;-78
2023/09/28 22:47:13;;;;;;;14.30;12.80;;;;;;;;;;2615056;39;20775;-79
2023/09/28 22:52:43;;;;;;;13.63;12.10;;;;;;;;;;2615231;54;20410;-79
2023/09/28 22:58:12;;;;;;;14.83;12.90;;;;;;;;;;2613503;39;20836;-79
2023/09/28 23:03:42;;;;;;;21.40;12.93;;;;;;;;;;2614214;54;20392;-78
2023/09/28 23:09:12;;;;;;;15.73;11.73;;;;;;;;;;2614013;54;20403;-78
2023/09/28 23:14:43;;;;;;;12.80;11.60;;;;;;;;;;2613420;54;20490;-79
2023/09/28 23:20:13;;;;;;;14.70;13.30;;;;;;;;;;2613974;54;20375;-78
2023/09/28 23:25:43;;;;;;;12.20;11.10;;;;;;;;;;2613679;54;20383;-78
2023/09/28 23:31:13;;;;;;;12.43;11.40;;;;;;;;;;2614207;54;21760;-78
2023/09/28 23:36:44;;;;;;;11.87;10.77;;;;;;;;;;2613640;54;20428;-79
2023/09/28 23:42:13;;;;;;;12.90;10.80;;;;;;;;;;2614084;54;20415;-79
2023/09/28 23:47:44;;;;;;;13.33;11.30;;;;;;;;;;2613975;54;20403;-79
2023/09/28 23:53:13;;;;;;;13.50;10.63;;;;;;;;;;2612982;54;20387;-77
2023/09/28 23:58:43;;;;;;;11.23;10.27;;;;;;;;;;2613952;54;20419;-79
